createdAt,value
2023-05-18T00:00:54.479Z,26.47
2023-05-18T00:01:54.404Z,26.50
2023-05-18T00:02:54.430Z,26.48
2023-05-18T00:03:54.559Z,26.50
2023-05-18T00:04:54.550Z,26.50
2023-05-18T00:05:54.419Z,26.50
2023-05-18T00:06:54.451Z,26.53
2023-05-18T00:07:54.443Z,26.51
2023-05-18T00:08:54.455Z,26.51
2023-05-18T00:09:54.509Z,26.51
2023-05-18T00:10:54.465Z,26.54
2023-05-18T00:11:54.490Z,26.54
2023-05-18T00:12:54.505Z,26.56
2023-05-18T00:13:54.585Z,26.56
2023-05-18T00:14:54.554Z,26.58
2023-05-18T00:15:54.546Z,26.58
2023-05-18T00:16:54.536Z,26.58
2023-05-18T00:17:54.699Z,26.61
2023-05-18T00:18:54.728Z,26.60
2023-05-18T00:19:54.565Z,26.60
2023-05-18T00:20:54.595Z,26.61
2023-05-18T00:21:54.625Z,26.61
2023-05-18T00:22:54.663Z,26.64
2023-05-18T00:23:54.725Z,26.63
2023-05-18T00:24:54.817Z,26.64
2023-05-18T00:25:54.852Z,26.63
2023-05-18T00:26:54.927Z,26.63
2023-05-18T00:27:54.965Z,26.64
2023-05-18T00:28:55.012Z,26.64
2023-05-18T00:29:55.124Z,26.67
2023-05-18T00:30:55.102Z,26.67
2023-05-18T00:31:55.237Z,26.68
2023-05-18T00:32:55.221Z,26.65
2023-05-18T00:33:55.237Z,26.64
2023-05-18T00:34:55.337Z,26.68
2023-05-18T00:35:55.374Z,26.68
2023-05-18T00:36:55.410Z,26.71
2023-05-18T00:37:55.469Z,26.70
2023-05-18T00:38:55.545Z,26.71
2023-05-18T00:39:55.646Z,26.71
2023-05-18T00:40:55.669Z,26.68
2023-05-18T00:41:55.748Z,26.70
2023-05-18T00:42:55.778Z,26.73
2023-05-18T00:43:55.845Z,26.70
2023-05-18T00:44:55.924Z,26.71
2023-05-18T00:45:55.990Z,26.73
2023-05-18T00:46:55.962Z,26.73
2023-05-18T00:47:56.088Z,26.74
2023-05-18T00:48:56.078Z,26.74
2023-05-18T00:49:56.180Z,26.73
2023-05-18T00:50:56.228Z,26.73
2023-05-18T00:51:56.285Z,26.73
2023-05-18T00:52:56.348Z,26.71
2023-05-18T00:53:56.439Z,26.73
2023-05-18T00:54:56.449Z,26.73
2023-05-18T00:55:56.505Z,26.71
2023-05-18T00:56:56.554Z,26.73
2023-05-18T00:57:56.650Z,26.74
2023-05-18T00:58:56.672Z,26.71
2023-05-18T00:59:56.703Z,26.73
2023-05-18T01:00:56.805Z,26.75
2023-05-18T01:01:56.860Z,26.75
2023-05-18T01:02:56.924Z,26.74
2023-05-18T01:03:56.902Z,26.73
2023-05-18T01:04:56.964Z,26.73
2023-05-18T01:05:57.010Z,26.73
2023-05-18T01:06:57.078Z,26.77
2023-05-18T01:07:57.129Z,26.74
2023-05-18T01:08:57.183Z,26.75
2023-05-18T01:09:57.259Z,26.73
2023-05-18T01:10:57.363Z,26.75
2023-05-18T01:11:57.381Z,26.74
2023-05-18T01:12:57.455Z,26.73
2023-05-18T01:13:57.487Z,26.74
2023-05-18T01:14:57.556Z,26.74
2023-05-18T01:15:57.621Z,26.77
2023-05-18T01:16:57.791Z,26.73
2023-05-18T01:17:57.755Z,26.74
2023-05-18T01:18:57.759Z,26.77
2023-05-18T01:19:57.791Z,26.74
2023-05-18T01:20:57.859Z,26.74
2023-05-18T01:21:57.884Z,26.73
2023-05-18T01:22:57.978Z,26.75
2023-05-18T01:23:57.989Z,26.74
2023-05-18T01:24:58.085Z,26.75
2023-05-18T01:25:58.106Z,26.75
2023-05-18T01:26:58.179Z,26.74
2023-05-18T01:27:58.229Z,26.74
2023-05-18T01:28:58.323Z,26.73
2023-05-18T01:29:58.362Z,26.74
2023-05-18T01:30:58.490Z,26.75
2023-05-18T01:31:58.460Z,26.73
2023-05-18T01:32:58.579Z,26.77
2023-05-18T01:33:58.621Z,26.73
2023-05-18T01:34:58.665Z,26.74
2023-05-18T01:35:58.770Z,26.75
2023-05-18T01:36:58.785Z,26.74
2023-05-18T01:37:58.892Z,26.75
2023-05-18T01:38:58.900Z,26.77
2023-05-18T01:39:58.954Z,26.74
2023-05-18T01:40:59.057Z,26.74
2023-05-18T01:41:59.063Z,26.73
2023-05-18T01:42:59.119Z,26.77
2023-05-18T01:43:59.210Z,26.75
2023-05-18T01:44:59.237Z,26.74
2023-05-18T01:45:59.322Z,26.73
2023-05-18T01:46:59.376Z,26.74
2023-05-18T01:47:59.459Z,26.77
2023-05-18T01:48:59.458Z,26.74
2023-05-18T01:51:11.516Z,26.74
2023-05-18T01:52:12.493Z,26.74
2023-05-18T01:53:12.485Z,26.75
2023-05-18T01:54:12.486Z,26.74
2023-05-18T01:55:12.491Z,26.75
2023-05-18T01:56:12.489Z,26.74
2023-05-18T01:57:12.490Z,26.75
2023-05-18T01:58:12.485Z,26.74
2023-05-18T01:59:12.494Z,26.73
2023-05-18T02:00:12.488Z,26.77
2023-05-18T02:01:12.501Z,26.75
2023-05-18T02:02:12.536Z,26.73
2023-05-18T02:03:12.630Z,26.75
2023-05-18T02:04:12.620Z,26.75
2023-05-18T02:05:12.551Z,26.75
2023-05-18T02:06:12.501Z,26.77
2023-05-18T02:07:12.529Z,26.75
2023-05-18T02:08:12.497Z,26.75
2023-05-18T02:09:12.538Z,26.78
2023-05-18T02:10:12.501Z,26.75
2023-05-18T02:11:12.492Z,26.75
2023-05-18T02:12:12.489Z,26.77
2023-05-18T02:13:12.487Z,26.75
2023-05-18T02:14:12.546Z,26.74
2023-05-18T02:15:12.493Z,26.73
2023-05-18T02:16:12.543Z,26.74
2023-05-18T02:17:12.508Z,26.73
2023-05-18T02:18:12.554Z,26.73
2023-05-18T02:19:12.525Z,26.71
2023-05-18T02:20:12.516Z,26.74
2023-05-18T02:21:12.495Z,26.73
2023-05-18T02:22:12.497Z,26.74
2023-05-18T02:23:12.525Z,26.75
2023-05-18T02:24:12.512Z,26.74
2023-05-18T02:25:12.501Z,26.74
2023-05-18T02:26:12.489Z,26.74
2023-05-18T02:27:12.495Z,26.73
2023-05-18T02:28:12.504Z,26.74
2023-05-18T02:29:12.496Z,26.75
2023-05-18T02:30:15.178Z,26.75
2023-05-18T02:31:12.507Z,26.74
2023-05-18T02:32:12.615Z,26.74
2023-05-18T02:33:12.660Z,26.75
2023-05-18T02:34:12.502Z,26.74
2023-05-18T02:35:12.513Z,26.74
2023-05-18T02:36:12.506Z,26.74
2023-05-18T02:37:12.504Z,26.74
2023-05-18T02:38:12.500Z,26.75
2023-05-18T02:39:12.539Z,26.75
2023-05-18T02:40:12.513Z,26.74
2023-05-18T02:41:12.512Z,26.75
2023-05-18T02:42:12.504Z,26.74
2023-05-18T02:43:12.544Z,26.77
2023-05-18T02:44:12.501Z,26.73
2023-05-18T02:45:12.501Z,26.75
2023-05-18T02:46:12.602Z,26.74
2023-05-18T02:47:12.529Z,26.77
2023-05-18T02:48:12.563Z,26.75
2023-05-18T02:49:12.512Z,26.73
2023-05-18T02:50:12.513Z,26.74
2023-05-18T02:51:12.512Z,26.74
2023-05-18T02:52:12.533Z,26.74
2023-05-18T02:53:12.544Z,26.71
2023-05-18T02:54:12.511Z,26.73
2023-05-18T02:55:12.546Z,26.73
2023-05-18T02:56:12.511Z,26.74
2023-05-18T02:57:12.518Z,26.74
2023-05-18T02:58:12.635Z,26.74
2023-05-18T02:59:12.517Z,26.75
2023-05-18T03:00:12.521Z,26.74
2023-05-18T03:01:12.620Z,26.75
2023-05-18T03:02:12.572Z,26.73
2023-05-18T03:03:12.694Z,26.74
2023-05-18T03:04:12.478Z,26.75
2023-05-18T03:05:12.112Z,26.73
2023-05-18T03:06:12.115Z,26.74
2023-05-18T03:07:12.523Z,26.73
2023-05-18T03:08:12.102Z,26.74
2023-05-18T03:09:12.112Z,26.74
2023-05-18T03:10:12.109Z,26.75
2023-05-18T03:11:12.128Z,26.74
2023-05-18T03:12:12.088Z,26.75
2023-05-18T03:13:12.081Z,26.74
2023-05-18T03:14:12.085Z,26.75
2023-05-18T03:15:12.074Z,26.74
2023-05-18T03:16:12.103Z,26.75
2023-05-18T03:17:12.126Z,26.75
2023-05-18T03:18:12.161Z,26.75
2023-05-18T03:19:12.156Z,26.73
2023-05-18T03:20:12.083Z,26.74
2023-05-18T03:21:12.074Z,26.75
2023-05-18T03:22:12.082Z,26.73
2023-05-18T03:23:12.111Z,26.75
2023-05-18T03:24:12.089Z,26.77
2023-05-18T03:25:12.128Z,26.71
2023-05-18T03:26:12.088Z,26.75
2023-05-18T03:27:12.105Z,26.74
2023-05-18T03:28:12.083Z,26.74
2023-05-18T03:29:12.094Z,26.75
2023-05-18T03:30:12.138Z,26.73
2023-05-18T03:31:12.187Z,26.75
2023-05-18T03:32:12.497Z,26.75
2023-05-18T03:33:12.634Z,26.75
2023-05-18T03:34:12.549Z,26.74
2023-05-18T03:35:12.551Z,26.73
2023-05-18T03:36:12.543Z,26.73
2023-05-18T03:37:12.547Z,26.73
2023-05-18T03:38:12.554Z,26.73
2023-05-18T03:39:12.543Z,26.73
2023-05-18T03:40:12.538Z,26.73
2023-05-18T03:41:12.547Z,26.71
2023-05-18T03:42:12.573Z,26.73
2023-05-18T03:43:12.573Z,26.70
2023-05-18T03:44:12.551Z,26.71
2023-05-18T03:45:12.558Z,26.70
2023-05-18T03:46:12.591Z,26.74
2023-05-18T03:47:12.542Z,26.74
2023-05-18T03:48:12.627Z,26.74
2023-05-18T03:49:12.548Z,26.74
2023-05-18T03:50:12.560Z,26.73
2023-05-18T03:51:12.572Z,26.73
2023-05-18T03:52:12.563Z,26.75
2023-05-18T03:53:12.548Z,26.75
2023-05-18T03:54:12.640Z,26.70
2023-05-18T03:55:12.562Z,26.74
2023-05-18T03:56:12.549Z,26.71
2023-05-18T03:57:12.562Z,26.74
2023-05-18T03:58:12.552Z,26.75
2023-05-18T03:59:12.581Z,26.74
2023-05-18T04:00:12.555Z,26.74
2023-05-18T04:01:12.559Z,26.74
2023-05-18T04:02:12.600Z,26.74
2023-05-18T04:03:12.720Z,26.73
2023-05-18T04:04:12.594Z,26.73
2023-05-18T04:05:12.584Z,26.74
2023-05-18T04:06:12.576Z,26.73
2023-05-18T04:07:14.253Z,26.73
2023-05-18T04:08:12.564Z,26.74
2023-05-18T04:09:12.557Z,26.73
2023-05-18T04:10:12.624Z,26.74
2023-05-18T04:11:12.556Z,26.75
2023-05-18T04:12:12.567Z,26.74
2023-05-18T04:13:12.563Z,26.75
2023-05-18T04:14:12.602Z,26.71
2023-05-18T04:15:12.616Z,26.75
2023-05-18T04:16:12.609Z,26.75
2023-05-18T04:17:12.562Z,26.73
2023-05-18T04:18:12.850Z,26.74
2023-05-18T04:19:12.629Z,26.73
2023-05-18T04:20:12.576Z,26.75
2023-05-18T04:21:12.573Z,26.73
2023-05-18T04:22:12.585Z,26.75
2023-05-18T04:23:12.572Z,26.74
2023-05-18T04:24:12.562Z,26.77
2023-05-18T04:25:12.577Z,26.75
2023-05-18T04:26:12.585Z,26.73
2023-05-18T04:27:12.581Z,26.75
2023-05-18T04:28:12.597Z,26.74
2023-05-18T04:29:12.576Z,26.74
2023-05-18T04:30:12.594Z,26.74
2023-05-18T04:31:12.648Z,26.75
2023-05-18T04:32:12.642Z,26.75
2023-05-18T04:33:12.675Z,26.75
2023-05-18T04:34:12.584Z,26.74
2023-05-18T04:35:12.630Z,26.75
2023-05-18T04:36:12.582Z,26.74
2023-05-18T04:37:12.573Z,26.75
2023-05-18T04:38:12.575Z,26.77
2023-05-18T04:39:12.610Z,26.77
2023-05-18T04:40:12.584Z,26.75
2023-05-18T04:41:12.576Z,26.80
2023-05-18T04:42:12.582Z,26.74
2023-05-18T04:43:12.580Z,26.75
2023-05-18T04:44:12.578Z,26.73
2023-05-18T04:45:12.649Z,26.78
2023-05-18T04:46:12.638Z,26.78
2023-05-18T04:47:12.640Z,26.77
2023-05-18T04:48:12.688Z,26.80
2023-05-18T04:49:12.582Z,26.78
2023-05-18T04:50:12.576Z,26.77
2023-05-18T04:51:12.582Z,26.78
2023-05-18T04:52:12.583Z,26.77
2023-05-18T04:53:12.600Z,26.75
2023-05-18T04:54:12.583Z,26.77
2023-05-18T04:55:12.583Z,26.75
2023-05-18T04:56:12.617Z,26.77
2023-05-18T04:57:12.585Z,26.77
2023-05-18T04:58:12.587Z,26.75
2023-05-18T04:59:12.599Z,26.77
2023-05-18T05:00:12.596Z,26.77
2023-05-18T05:01:12.650Z,26.75
2023-05-18T05:02:12.629Z,26.77
2023-05-18T05:03:12.686Z,26.77
2023-05-18T05:04:12.582Z,26.77
2023-05-18T05:05:12.592Z,26.77
2023-05-18T05:06:12.588Z,26.80
2023-05-18T05:07:12.591Z,26.81
2023-05-18T05:08:12.592Z,26.77
2023-05-18T05:09:12.587Z,26.77
2023-05-18T05:10:12.618Z,26.78
2023-05-18T05:11:12.594Z,26.80
2023-05-18T05:12:12.594Z,26.78
2023-05-18T05:13:12.594Z,26.77
2023-05-18T05:14:12.592Z,26.80
2023-05-18T05:15:12.680Z,26.78
2023-05-18T05:16:12.608Z,26.78
2023-05-18T05:17:12.608Z,26.78
2023-05-18T05:18:12.652Z,26.80
2023-05-18T05:19:12.823Z,26.78
2023-05-18T05:20:12.589Z,26.80
2023-05-18T05:21:12.602Z,26.82
2023-05-18T05:22:12.607Z,26.84
2023-05-18T05:23:12.705Z,26.82
2023-05-18T05:24:12.592Z,26.85
2023-05-18T05:25:12.591Z,26.82
2023-05-18T05:26:12.603Z,26.82
2023-05-18T05:27:12.595Z,26.80
2023-05-18T05:28:12.594Z,26.81
2023-05-18T05:29:12.600Z,26.82
2023-05-18T05:30:12.636Z,26.81
2023-05-18T05:31:12.744Z,26.82
2023-05-18T05:32:12.623Z,26.82
2023-05-18T05:33:12.617Z,26.84
2023-05-18T05:34:12.597Z,26.82
2023-05-18T05:35:12.640Z,26.84
2023-05-18T05:36:12.613Z,26.84
2023-05-18T05:37:12.606Z,26.82
2023-05-18T05:38:12.611Z,26.84
2023-05-18T05:39:12.603Z,26.84
2023-05-18T05:40:12.632Z,26.82
2023-05-18T05:41:12.618Z,26.82
2023-05-18T05:42:12.612Z,26.81
2023-05-18T05:43:12.607Z,26.82
2023-05-18T05:44:12.612Z,26.81
2023-05-18T05:45:12.644Z,26.81
2023-05-18T05:46:12.646Z,26.84
2023-05-18T05:47:12.744Z,26.84
2023-05-18T05:48:13.907Z,26.81
2023-05-18T05:49:12.615Z,26.81
2023-05-18T05:50:12.617Z,26.84
2023-05-18T05:51:12.646Z,26.82
2023-05-18T05:52:12.624Z,26.82
2023-05-18T05:53:12.626Z,26.82
2023-05-18T05:54:12.633Z,26.82
2023-05-18T05:55:12.646Z,26.81
2023-05-18T05:56:12.656Z,26.80
2023-05-18T05:57:12.660Z,26.80
2023-05-18T05:58:13.546Z,26.81
2023-05-18T05:59:12.707Z,26.81
2023-05-18T06:00:12.676Z,26.82
2023-05-18T06:01:12.679Z,26.82
2023-05-18T06:02:12.747Z,26.81
2023-05-18T06:03:12.728Z,26.82
2023-05-18T06:04:12.816Z,26.84
2023-05-18T06:05:12.685Z,26.84
2023-05-18T06:06:12.696Z,26.82
2023-05-18T06:07:12.725Z,26.82
2023-05-18T06:08:12.712Z,26.82
2023-05-18T06:09:12.721Z,26.82
2023-05-18T06:10:12.728Z,26.82
2023-05-18T06:11:12.716Z,26.82
2023-05-18T06:12:12.764Z,26.84
2023-05-18T06:13:12.725Z,26.82
2023-05-18T06:14:12.733Z,26.84
2023-05-18T06:15:12.733Z,26.85
2023-05-18T06:16:12.776Z,26.84
2023-05-18T06:17:12.749Z,26.84
2023-05-18T06:18:13.758Z,26.87
2023-05-18T06:19:12.800Z,26.85
2023-05-18T06:20:12.797Z,26.85
2023-05-18T06:21:12.789Z,26.84
2023-05-18T06:22:12.786Z,26.87
2023-05-18T06:23:12.887Z,26.84
2023-05-18T06:24:12.811Z,26.87
2023-05-18T06:25:12.830Z,26.85
2023-05-18T06:26:12.810Z,26.88
2023-05-18T06:27:12.824Z,26.87
2023-05-18T06:28:12.825Z,26.88
2023-05-18T06:29:12.841Z,26.90
2023-05-18T06:30:12.891Z,26.87
2023-05-18T06:31:12.948Z,26.88
2023-05-18T06:32:12.950Z,26.88
2023-05-18T06:33:12.988Z,26.87
2023-05-18T06:34:12.970Z,26.90
2023-05-18T06:35:13.077Z,26.90
2023-05-18T06:36:13.011Z,26.87
2023-05-18T06:37:13.035Z,26.90
2023-05-18T06:38:13.072Z,26.88
2023-05-18T06:39:13.142Z,26.92
2023-05-18T06:40:13.187Z,26.95
2023-05-18T06:41:13.182Z,26.91
2023-05-18T06:42:13.186Z,26.91
2023-05-18T06:43:13.213Z,26.94
2023-05-18T06:44:13.272Z,26.95
2023-05-18T06:45:13.277Z,26.97
2023-05-18T06:46:13.385Z,26.98
2023-05-18T06:47:13.389Z,26.97
2023-05-18T06:48:13.402Z,26.98
2023-05-18T06:49:13.440Z,26.98
2023-05-18T06:50:13.482Z,26.99
2023-05-18T06:51:13.545Z,26.99
2023-05-18T06:52:13.574Z,27.01
2023-05-18T06:53:13.620Z,27.01
2023-05-18T06:54:13.663Z,27.02
2023-05-18T06:55:13.719Z,27.02
2023-05-18T06:56:13.761Z,27.02
2023-05-18T06:57:13.800Z,27.02
2023-05-18T06:58:13.835Z,27.03
2023-05-18T06:59:13.866Z,27.05
2023-05-18T07:00:13.898Z,27.02
2023-05-18T07:01:14.011Z,27.03
2023-05-18T07:02:13.973Z,27.03
2023-05-18T07:03:14.103Z,27.02
2023-05-18T07:04:14.161Z,27.03
2023-05-18T07:05:14.144Z,27.06
2023-05-18T07:06:14.173Z,27.05
2023-05-18T07:07:14.222Z,27.06
2023-05-18T07:08:14.295Z,27.09
2023-05-18T07:09:14.327Z,27.08
2023-05-18T07:10:14.347Z,27.08
2023-05-18T07:11:14.421Z,27.06
2023-05-18T07:12:14.434Z,27.09
2023-05-18T07:13:14.488Z,27.11
2023-05-18T07:14:14.518Z,27.11
2023-05-18T07:15:14.595Z,27.11
2023-05-18T07:16:14.651Z,27.09
2023-05-18T07:17:14.711Z,27.08
2023-05-18T07:18:14.805Z,27.08
2023-05-18T07:19:14.981Z,27.06
2023-05-18T07:20:14.869Z,27.08
2023-05-18T07:21:14.908Z,27.08
2023-05-18T07:22:14.996Z,27.06
2023-05-18T07:23:15.010Z,27.03
2023-05-18T07:24:15.066Z,27.05
2023-05-18T07:25:15.110Z,27.02
2023-05-18T07:26:15.138Z,27.06
2023-05-18T07:27:15.220Z,27.03
2023-05-18T07:28:15.248Z,27.05
2023-05-18T07:29:15.303Z,27.06
2023-05-18T07:30:15.342Z,27.05
2023-05-18T07:31:15.392Z,27.05
2023-05-18T07:32:15.417Z,27.03
2023-05-18T07:33:15.513Z,27.06
2023-05-18T07:34:15.533Z,27.06
2023-05-18T07:35:15.565Z,27.03
2023-05-18T07:36:15.613Z,27.01
2023-05-18T07:37:15.670Z,27.03
2023-05-18T07:38:15.726Z,27.02
2023-05-18T07:39:16.572Z,27.02
2023-05-18T07:40:15.792Z,27.02
2023-05-18T07:41:15.769Z,27.03
2023-05-18T07:42:15.771Z,27.02
2023-05-18T07:43:15.793Z,27.01
2023-05-18T07:44:15.747Z,26.99
2023-05-18T07:45:15.736Z,27.02
2023-05-18T07:46:15.754Z,26.99
2023-05-18T07:47:15.720Z,27.02
2023-05-18T07:48:15.723Z,26.99
2023-05-18T07:49:15.721Z,27.02
2023-05-18T07:50:15.740Z,27.01
2023-05-18T07:51:15.702Z,27.03
2023-05-18T07:52:15.704Z,27.01
2023-05-18T07:53:15.698Z,27.02
2023-05-18T07:54:15.691Z,27.01
2023-05-18T07:55:15.746Z,27.02
2023-05-18T07:56:15.684Z,27.02
2023-05-18T07:57:15.683Z,27.01
2023-05-18T07:58:15.707Z,27.01
2023-05-18T07:59:15.772Z,27.01
2023-05-18T08:00:15.704Z,27.02
2023-05-18T08:01:15.680Z,27.02
2023-05-18T08:02:15.733Z,27.03
2023-05-18T08:03:15.785Z,27.02
2023-05-18T08:04:15.784Z,27.02
2023-05-18T08:05:15.673Z,27.01
2023-05-18T08:06:15.646Z,27.03
2023-05-18T08:07:15.635Z,27.02
2023-05-18T08:08:15.631Z,27.03
2023-05-18T08:09:15.659Z,27.02
2023-05-18T08:10:15.633Z,27.03
2023-05-18T08:11:15.695Z,27.02
2023-05-18T08:12:15.709Z,27.02
2023-05-18T08:13:15.750Z,27.02
2023-05-18T08:14:15.830Z,27.03
2023-05-18T08:15:15.879Z,27.01
2023-05-18T08:16:15.897Z,27.03
2023-05-18T08:17:15.932Z,27.05
2023-05-18T08:18:16.084Z,27.02
2023-05-18T08:19:16.103Z,27.02
2023-05-18T08:20:16.150Z,27.02
2023-05-18T08:21:16.102Z,27.01
2023-05-18T08:22:16.168Z,27.02
2023-05-18T08:23:16.220Z,27.03
2023-05-18T08:24:16.274Z,27.02
2023-05-18T08:25:16.382Z,27.02
2023-05-18T08:26:16.355Z,27.02
2023-05-18T08:27:16.406Z,27.02
2023-05-18T08:28:16.456Z,27.02
2023-05-18T08:29:16.512Z,26.99
2023-05-18T08:30:16.638Z,27.02
2023-05-18T08:31:16.673Z,27.03
2023-05-18T08:32:16.809Z,27.03
2023-05-18T08:33:16.759Z,27.02
2023-05-18T08:34:16.769Z,27.02
2023-05-18T08:35:16.820Z,27.03
2023-05-18T08:36:16.917Z,27.02
2023-05-18T08:37:16.916Z,27.05
2023-05-18T08:38:17.719Z,27.03
2023-05-18T08:39:16.996Z,27.05
2023-05-18T08:40:17.089Z,27.03
2023-05-18T08:41:17.115Z,27.03
2023-05-18T08:42:17.131Z,27.02
2023-05-18T08:43:17.178Z,27.03
2023-05-18T08:44:17.237Z,27.03
2023-05-18T08:45:17.297Z,27.03
2023-05-18T08:46:17.771Z,27.03
2023-05-18T08:47:17.742Z,27.05
2023-05-18T08:48:17.815Z,27.02
2023-05-18T08:49:17.713Z,27.03
2023-05-18T08:50:17.714Z,27.03
2023-05-18T08:51:17.711Z,27.05
2023-05-18T08:52:17.740Z,27.05
2023-05-18T08:53:17.780Z,27.06
2023-05-18T08:54:17.729Z,27.03
2023-05-18T08:55:17.980Z,27.06
2023-05-18T08:56:17.834Z,27.03
2023-05-18T08:57:17.867Z,27.03
2023-05-18T08:58:17.951Z,27.03
2023-05-18T08:59:17.965Z,27.05
2023-05-18T09:00:18.039Z,27.05
2023-05-18T09:01:18.110Z,27.06
2023-05-18T09:02:18.138Z,27.02
2023-05-18T09:03:18.234Z,27.06
2023-05-18T09:04:18.213Z,27.06
2023-05-18T09:05:18.413Z,27.03
2023-05-18T09:06:18.687Z,27.03
2023-05-18T09:07:18.732Z,27.02
2023-05-18T09:08:18.729Z,27.05
2023-05-18T09:09:18.728Z,27.05
2023-05-18T09:10:18.738Z,27.05
2023-05-18T09:11:18.742Z,27.05
2023-05-18T09:12:19.682Z,27.03
2023-05-18T09:13:18.730Z,27.03
2023-05-18T09:14:18.745Z,27.06
2023-05-18T09:15:18.809Z,27.05
2023-05-18T09:16:18.887Z,27.03
2023-05-18T09:17:18.903Z,27.03
2023-05-18T09:18:19.845Z,27.03
2023-05-18T09:19:18.987Z,27.05
2023-05-18T09:20:18.954Z,27.03
2023-05-18T09:21:18.923Z,27.03
2023-05-18T09:22:18.920Z,27.05
2023-05-18T09:23:18.906Z,27.03
2023-05-18T09:24:18.901Z,27.02
2023-05-18T09:25:18.906Z,27.02
2023-05-18T09:26:18.894Z,27.05
2023-05-18T09:27:18.881Z,27.03
2023-05-18T09:28:18.874Z,27.03
2023-05-18T09:29:18.865Z,27.05
2023-05-18T09:30:18.875Z,27.02
2023-05-18T09:31:18.890Z,27.03
2023-05-18T09:32:18.837Z,27.02
2023-05-18T09:33:18.998Z,27.03
2023-05-18T09:34:18.816Z,27.03
2023-05-18T09:35:18.857Z,27.06
2023-05-18T09:36:18.803Z,27.03
2023-05-18T09:37:18.808Z,27.03
2023-05-18T09:38:18.786Z,27.03
2023-05-18T09:39:18.772Z,27.03
2023-05-18T09:40:18.773Z,27.02
2023-05-18T09:41:18.760Z,27.05
2023-05-18T09:42:18.754Z,27.03
2023-05-18T09:43:18.753Z,27.06
2023-05-18T09:44:18.751Z,27.03
2023-05-18T09:45:18.741Z,27.05
2023-05-18T09:46:18.753Z,27.06
2023-05-18T09:47:18.747Z,27.08
2023-05-18T09:48:18.760Z,27.06
2023-05-18T09:49:18.804Z,27.06
2023-05-18T09:50:18.878Z,27.05
2023-05-18T09:51:18.942Z,27.05
2023-05-18T09:52:18.953Z,27.06
2023-05-18T09:53:19.031Z,27.06
2023-05-18T09:54:19.041Z,27.06
2023-05-18T09:55:19.101Z,27.06
2023-05-18T09:56:19.175Z,27.05
2023-05-18T09:57:19.243Z,27.06
2023-05-18T09:58:19.282Z,27.06
2023-05-18T09:59:19.308Z,27.06
2023-05-18T10:00:19.624Z,27.09
2023-05-18T10:01:19.455Z,27.06
2023-05-18T10:02:19.483Z,27.08
2023-05-18T10:03:19.544Z,27.06
2023-05-18T10:04:19.662Z,27.05
2023-05-18T10:05:19.641Z,27.06
2023-05-18T10:06:19.714Z,27.06
2023-05-18T10:07:19.772Z,27.08
2023-05-18T10:08:19.806Z,27.06
2023-05-18T10:09:19.819Z,27.05
2023-05-18T10:10:20.008Z,27.08
2023-05-18T10:11:19.920Z,27.08
2023-05-18T10:12:20.003Z,27.08
2023-05-18T10:13:20.041Z,27.08
2023-05-18T10:14:20.054Z,27.08
2023-05-18T10:15:20.105Z,27.08
2023-05-18T10:16:20.195Z,27.08
2023-05-18T10:17:20.274Z,27.09
2023-05-18T10:18:20.310Z,27.09
2023-05-18T10:19:20.376Z,27.05
2023-05-18T10:20:20.396Z,27.05
2023-05-18T10:21:20.390Z,27.08
2023-05-18T10:22:20.421Z,27.12
2023-05-18T10:23:20.622Z,27.08
2023-05-18T10:24:20.529Z,27.09
2023-05-18T10:25:20.599Z,27.09
2023-05-18T10:26:20.658Z,27.11
2023-05-18T10:27:20.720Z,27.11
2023-05-18T10:28:20.769Z,27.11
2023-05-18T10:29:20.816Z,27.12
2023-05-18T10:30:20.872Z,27.11
2023-05-18T10:31:20.940Z,27.11
2023-05-18T10:32:21.005Z,27.12
2023-05-18T10:33:29.202Z,27.12
2023-05-18T10:34:21.029Z,27.13
2023-05-18T10:35:21.021Z,27.11
2023-05-18T10:36:21.010Z,27.12
2023-05-18T10:37:21.001Z,27.11
2023-05-18T10:38:20.998Z,27.13
2023-05-18T10:39:21.083Z,27.13
2023-05-18T10:40:21.009Z,27.12
2023-05-18T10:41:20.972Z,27.13
2023-05-18T10:42:20.968Z,27.13
2023-05-18T10:43:23.310Z,27.11
2023-05-18T10:44:20.952Z,27.12
2023-05-18T10:45:20.942Z,27.13
2023-05-18T10:46:20.983Z,27.13
2023-05-18T10:47:21.044Z,27.12
2023-05-18T10:48:20.989Z,27.12
2023-05-18T10:49:20.918Z,27.16
2023-05-18T10:50:20.916Z,27.15
2023-05-18T10:51:20.896Z,27.15
2023-05-18T10:52:20.904Z,27.13
2023-05-18T10:53:20.885Z,27.13
2023-05-18T10:54:20.883Z,27.15
2023-05-18T10:55:20.898Z,27.18
2023-05-18T10:56:20.861Z,27.15
2023-05-18T10:57:20.851Z,27.15
2023-05-18T10:58:20.846Z,27.16
2023-05-18T10:59:20.838Z,27.15
2023-05-18T11:00:20.823Z,27.15
2023-05-18T11:01:20.853Z,27.15
2023-05-18T11:02:20.831Z,27.16
2023-05-18T11:03:20.793Z,27.15
2023-05-18T11:04:20.842Z,27.15
2023-05-18T11:05:20.936Z,27.16
2023-05-18T11:06:20.789Z,27.15
2023-05-18T11:07:20.779Z,27.15
2023-05-18T11:08:20.790Z,27.19
2023-05-18T11:09:20.862Z,27.19
2023-05-18T11:10:20.909Z,27.16
2023-05-18T11:11:20.980Z,27.18
2023-05-18T11:12:21.007Z,27.18
2023-05-18T11:13:21.100Z,27.19
2023-05-18T11:14:21.129Z,27.18
2023-05-18T11:15:21.171Z,27.19
2023-05-18T11:16:21.462Z,27.16
2023-05-18T11:17:21.262Z,27.18
2023-05-18T11:18:21.328Z,27.18
2023-05-18T11:19:21.499Z,27.16
2023-05-18T11:20:21.439Z,27.19
2023-05-18T11:21:21.486Z,27.18
2023-05-18T11:22:21.548Z,27.18
2023-05-18T11:23:21.595Z,27.16
2023-05-18T11:24:21.669Z,27.18
2023-05-18T11:25:21.707Z,27.16
2023-05-18T11:26:21.757Z,27.18
2023-05-18T11:27:21.815Z,27.19
2023-05-18T11:28:21.822Z,27.16
2023-05-18T11:29:21.883Z,27.16
2023-05-18T11:30:21.922Z,27.16
2023-05-18T11:31:21.987Z,27.19
2023-05-18T11:32:29.272Z,27.19
2023-05-18T11:33:22.074Z,27.16
2023-05-18T11:34:22.012Z,27.18
2023-05-18T11:35:22.019Z,27.18
2023-05-18T11:36:21.998Z,27.16
2023-05-18T11:37:21.991Z,27.19
2023-05-18T11:38:21.989Z,27.18
2023-05-18T11:39:21.969Z,27.18
2023-05-18T11:40:21.955Z,27.19
2023-05-18T11:41:21.951Z,27.18
2023-05-18T11:42:21.932Z,27.19
2023-05-18T11:43:21.959Z,27.19
2023-05-18T11:44:21.923Z,27.21
2023-05-18T11:45:21.907Z,27.19
2023-05-18T11:46:21.900Z,27.18
2023-05-18T11:47:21.888Z,27.22
2023-05-18T11:48:21.944Z,27.19
2023-05-18T11:49:21.865Z,27.21
2023-05-18T11:50:21.852Z,27.19
2023-05-18T11:51:21.839Z,27.19
2023-05-18T11:52:21.838Z,27.19
2023-05-18T11:53:21.818Z,27.19
2023-05-18T11:54:21.815Z,27.19
2023-05-18T11:55:21.792Z,27.18
2023-05-18T11:56:21.789Z,27.18
2023-05-18T11:57:21.770Z,27.19
2023-05-18T11:58:21.779Z,27.19
2023-05-18T11:59:21.859Z,27.21
2023-05-18T12:00:21.904Z,27.21
2023-05-18T12:01:21.924Z,27.21
2023-05-18T12:02:22.034Z,27.19
2023-05-18T12:03:22.100Z,27.19
2023-05-18T12:04:22.253Z,27.21
2023-05-18T12:05:22.128Z,27.21
2023-05-18T12:06:22.171Z,27.21
2023-05-18T12:07:22.211Z,27.19
2023-05-18T12:08:22.265Z,27.22
2023-05-18T12:09:22.310Z,27.22
2023-05-18T12:10:22.365Z,27.22
2023-05-18T12:11:22.381Z,27.19
2023-05-18T12:12:22.445Z,27.22
2023-05-18T12:13:22.501Z,27.22
2023-05-18T12:14:22.536Z,27.24
2023-05-18T12:15:22.643Z,27.21
2023-05-18T12:16:22.683Z,27.22
2023-05-18T12:17:22.681Z,27.21
2023-05-18T12:18:22.735Z,27.22
2023-05-18T12:19:22.918Z,27.24
2023-05-18T12:20:22.853Z,27.25
2023-05-18T12:21:22.864Z,27.25
2023-05-18T12:22:22.916Z,27.24
2023-05-18T12:23:22.964Z,27.24
2023-05-18T12:24:22.994Z,27.24
2023-05-18T12:25:23.044Z,27.24
2023-05-18T12:26:23.091Z,27.26
2023-05-18T12:27:23.141Z,27.24
2023-05-18T12:28:23.187Z,27.24
2023-05-18T12:29:23.222Z,27.25
2023-05-18T12:30:23.276Z,27.25
2023-05-18T12:31:23.404Z,27.25
2023-05-18T12:32:23.540Z,27.24
2023-05-18T12:33:24.197Z,27.25
2023-05-18T12:34:23.842Z,27.25
2023-05-18T12:35:23.897Z,27.25
2023-05-18T12:36:23.848Z,27.25
2023-05-18T12:37:30.750Z,27.25
2023-05-18T12:38:23.855Z,27.25
2023-05-18T12:39:24.629Z,27.25
2023-05-18T12:40:23.921Z,27.26
2023-05-18T12:41:23.845Z,27.25
2023-05-18T12:42:23.849Z,27.24
2023-05-18T12:43:23.849Z,27.28
2023-05-18T12:44:23.845Z,27.25
2023-05-18T12:45:23.860Z,27.25
2023-05-18T12:46:24.032Z,27.26
2023-05-18T12:47:23.940Z,27.25
2023-05-18T12:48:23.893Z,27.26
2023-05-18T12:49:23.844Z,27.28
2023-05-18T12:50:23.825Z,27.24
2023-05-18T12:51:23.437Z,27.26
2023-05-18T12:52:23.420Z,27.24
2023-05-18T12:53:23.409Z,27.28
2023-05-18T12:54:23.388Z,27.29